Krasnovishersk, Russia
Current Conditions -  °F | °C
As of 12:00 PM on Sunday 26 Oct 2014 (Local Time) from USPP Reporting Station
Scattered Clouds Scattered Clouds  
Wind Chill:   Ceiling: Unl
Heat Index: 12°   Visibility: 4mi
Dew Point:   Wind: 9mph
Humidity: 79%   Direction: 300°WNW
Pressure: 30.33"   Gusts: NA
Location:  60.4°N, 57.08°E
Report Text: USPP 260700Z 30004MPS 6000 SCT013 M11/M14 Q1027 03810255 NOSIGRMK QFE760/1013
Loading
Personal Weather Stations






























Interactive Weather Map
Tropical Storm Tracking
New forecast layout! Learn more

10-Day Weather Forecast

Advertisements
Track Severe Weather on mobile